FDY921 PHOG-PHMK
Flight info
| Callsign | FDY921 |
|---|---|
| Flight time | 0h 29m |
| Altitude | 8000 |
| Route | OGG V6 BLUSH V8 MKK |
| Aircraft | C208/L-SDFGRY/C |
Departure
| Time | 2026-04-24 20:46 |
|---|---|
| Airport | Kahului International Airport (PHOG) |
Arrival
| Time | 2026-04-24 21:16 |
|---|---|
| Airport | Molokai Airport (PHMK) |
| Time | Latitude | Longitude | Altitude | Speed | Heading |
|---|---|---|---|---|---|
| 2026-04-24 20:38 | 20.89684 | -156.43613 | 44 ft | 0 kts | 65° |
| 2026-04-24 20:43 | 20.89685 | -156.43611 | 44 ft | 2 kts | 65° |
| 2026-04-24 20:43 | 20.89689 | -156.43603 | 44 ft | 5 kts | 56° |
| 2026-04-24 20:43 | 20.89714 | -156.43640 | 43 ft | 14 kts | 238° |
| 2026-04-24 20:44 | 20.89686 | -156.43765 | 44 ft | 18 kts | 320° |
| 2026-04-24 20:44 | 20.89768 | -156.43781 | 44 ft | 9 kts | 37° |
| 2026-04-24 20:44 | 20.89802 | -156.43714 | 44 ft | 13 kts | 65° |
| 2026-04-24 20:44 | 20.89896 | -156.43496 | 44 ft | 55 kts | 65° |
| 2026-04-24 20:45 | 20.90110 | -156.43006 | 51 ft | 87 kts | 64° |
| 2026-04-24 20:45 | 20.90354 | -156.42380 | 149 ft | 97 kts | 65° |
| 2026-04-24 20:45 | 20.90734 | -156.41815 | 322 ft | 96 kts | 46° |
| 2026-04-24 20:45 | 20.91234 | -156.41277 | 325 ft | 110 kts | 44° |
| 2026-04-24 20:46 | 20.91790 | -156.40687 | 383 ft | 113 kts | 43° |
| 2026-04-24 20:46 | 20.92354 | -156.40094 | 518 ft | 113 kts | 41° |
| 2026-04-24 20:46 | 20.93063 | -156.39776 | 661 ft | 112 kts | 5° |
| 2026-04-24 20:46 | 20.93779 | -156.40090 | 820 ft | 115 kts | 327° |
| 2026-04-24 20:47 | 20.94393 | -156.40615 | 1023 ft | 110 kts | 330° |
| 2026-04-24 20:47 | 20.95020 | -156.41123 | 1279 ft | 114 kts | 329° |
| 2026-04-24 20:47 | 20.95644 | -156.41640 | 1530 ft | 114 kts | 329° |
| 2026-04-24 20:47 | 20.96262 | -156.42153 | 1778 ft | 114 kts | 328° |
| 2026-04-24 20:48 | 20.96900 | -156.42683 | 2035 ft | 115 kts | 328° |
| 2026-04-24 20:48 | 20.97532 | -156.43208 | 2277 ft | 117 kts | 328° |
| 2026-04-24 20:48 | 20.98182 | -156.43748 | 2522 ft | 119 kts | 328° |
| 2026-04-24 20:48 | 20.98838 | -156.44294 | 2780 ft | 120 kts | 328° |
| 2026-04-24 20:49 | 20.99495 | -156.44841 | 3030 ft | 119 kts | 327° |
| 2026-04-24 20:49 | 21.00150 | -156.45385 | 3278 ft | 119 kts | 327° |
| 2026-04-24 20:49 | 21.00802 | -156.45929 | 3525 ft | 119 kts | 327° |
| 2026-04-24 20:49 | 21.01456 | -156.46471 | 3771 ft | 119 kts | 327° |
| 2026-04-24 20:50 | 21.02124 | -156.47026 | 3941 ft | 124 kts | 327° |
| 2026-04-24 20:50 | 21.02814 | -156.47597 | 4122 ft | 127 kts | 327° |
| 2026-04-24 20:50 | 21.03519 | -156.48183 | 4304 ft | 130 kts | 326° |
| 2026-04-24 20:50 | 21.04238 | -156.48779 | 4487 ft | 131 kts | 326° |
| 2026-04-24 20:51 | 21.04961 | -156.49381 | 4668 ft | 132 kts | 326° |
| 2026-04-24 20:51 | 21.05690 | -156.49988 | 4847 ft | 133 kts | 326° |
| 2026-04-24 20:51 | 21.06425 | -156.50600 | 5024 ft | 134 kts | 326° |
| 2026-04-24 20:51 | 21.07154 | -156.51208 | 5198 ft | 135 kts | 326° |
| 2026-04-24 20:52 | 21.07897 | -156.51827 | 5369 ft | 136 kts | 326° |
| 2026-04-24 20:52 | 21.08645 | -156.52449 | 5544 ft | 136 kts | 326° |
| 2026-04-24 20:52 | 21.09391 | -156.53071 | 5719 ft | 136 kts | 326° |
| 2026-04-24 20:52 | 21.10180 | -156.53620 | 5894 ft | 135 kts | 335° |
| 2026-04-24 20:53 | 21.11009 | -156.54095 | 6068 ft | 135 kts | 334° |
| 2026-04-24 20:53 | 21.11831 | -156.54582 | 6247 ft | 135 kts | 334° |
| 2026-04-24 20:53 | 21.12376 | -156.54906 | 6358 ft | 135 kts | 334° |
| 2026-04-24 20:53 | 21.13198 | -156.55393 | 6538 ft | 135 kts | 334° |
| 2026-04-24 20:54 | 21.14018 | -156.55878 | 6711 ft | 135 kts | 334° |
| 2026-04-24 20:54 | 21.14837 | -156.56364 | 6887 ft | 134 kts | 334° |
| 2026-04-24 20:54 | 21.15653 | -156.56848 | 7061 ft | 134 kts | 334° |
| 2026-04-24 20:54 | 21.16470 | -156.57333 | 7234 ft | 134 kts | 334° |
| 2026-04-24 20:55 | 21.17287 | -156.57816 | 7407 ft | 134 kts | 334° |
| 2026-04-24 20:55 | 21.18102 | -156.58300 | 7581 ft | 134 kts | 334° |
| 2026-04-24 20:55 | 21.18918 | -156.58784 | 7755 ft | 134 kts | 334° |
| 2026-04-24 20:55 | 21.19736 | -156.59269 | 7930 ft | 134 kts | 334° |
| 2026-04-24 20:56 | 21.20552 | -156.59752 | 8102 ft | 134 kts | 334° |
| 2026-04-24 20:56 | 21.21367 | -156.60235 | 8281 ft | 134 kts | 333° |
| 2026-04-24 20:56 | 21.22180 | -156.60718 | 8451 ft | 134 kts | 334° |
| 2026-04-24 20:56 | 21.23012 | -156.61208 | 8446 ft | 146 kts | 334° |
| 2026-04-24 20:57 | 21.23941 | -156.61755 | 8390 ft | 157 kts | 333° |
| 2026-04-24 20:57 | 21.24943 | -156.62344 | 8207 ft | 170 kts | 333° |
| 2026-04-24 20:57 | 21.26002 | -156.62971 | 8028 ft | 177 kts | 333° |
| 2026-04-24 20:57 | 21.27064 | -156.63609 | 8008 ft | 173 kts | 331° |
| 2026-04-24 20:58 | 21.27828 | -156.64583 | 8001 ft | 175 kts | 293° |
| 2026-04-24 20:58 | 21.27864 | -156.65881 | 8004 ft | 177 kts | 261° |
| 2026-04-24 20:58 | 21.27598 | -156.67165 | 8004 ft | 176 kts | 259° |
| 2026-04-24 20:58 | 21.27329 | -156.68440 | 8001 ft | 175 kts | 259° |
| 2026-04-24 20:59 | 21.27061 | -156.69707 | 7999 ft | 175 kts | 259° |
| 2026-04-24 20:59 | 21.26795 | -156.70978 | 8000 ft | 174 kts | 259° |
| 2026-04-24 20:59 | 21.26530 | -156.72252 | 7952 ft | 177 kts | 259° |
| 2026-04-24 20:59 | 21.26265 | -156.73540 | 7812 ft | 182 kts | 259° |
| 2026-04-24 21:00 | 21.25990 | -156.74884 | 7668 ft | 185 kts | 259° |
| 2026-04-24 21:00 | 21.25714 | -156.76240 | 7523 ft | 187 kts | 259° |
| 2026-04-24 21:00 | 21.25435 | -156.77608 | 7378 ft | 188 kts | 259° |
| 2026-04-24 21:00 | 21.25157 | -156.78982 | 7228 ft | 188 kts | 259° |
| 2026-04-24 21:01 | 21.24879 | -156.80352 | 7077 ft | 188 kts | 259° |
| 2026-04-24 21:01 | 21.24603 | -156.81722 | 6928 ft | 188 kts | 260° |
| 2026-04-24 21:01 | 21.24324 | -156.83096 | 6774 ft | 189 kts | 259° |
| 2026-04-24 21:01 | 21.24043 | -156.84475 | 6626 ft | 189 kts | 259° |
| 2026-04-24 21:02 | 21.23761 | -156.85844 | 6515 ft | 187 kts | 259° |
| 2026-04-24 21:02 | 21.23481 | -156.87214 | 6334 ft | 189 kts | 259° |
| 2026-04-24 21:02 | 21.23201 | -156.88583 | 6139 ft | 187 kts | 259° |
| 2026-04-24 21:02 | 21.22924 | -156.89930 | 5815 ft | 187 kts | 259° |
| 2026-04-24 21:03 | 21.22646 | -156.91288 | 5511 ft | 187 kts | 259° |
| 2026-04-24 21:03 | 21.22367 | -156.92648 | 5221 ft | 186 kts | 259° |
| 2026-04-24 21:03 | 21.22087 | -156.94001 | 4982 ft | 182 kts | 259° |
| 2026-04-24 21:03 | 21.21820 | -156.95265 | 5020 ft | 168 kts | 259° |
| 2026-04-24 21:04 | 21.21566 | -156.96461 | 5020 ft | 163 kts | 259° |
| 2026-04-24 21:04 | 21.21318 | -156.97635 | 5024 ft | 161 kts | 259° |
| 2026-04-24 21:04 | 21.21072 | -156.98801 | 5023 ft | 159 kts | 259° |
| 2026-04-24 21:04 | 21.20817 | -156.99947 | 5020 ft | 158 kts | 254° |
| 2026-04-24 21:05 | 21.20366 | -157.01014 | 5021 ft | 158 kts | 244° |
| 2026-04-24 21:05 | 21.19889 | -157.02075 | 5023 ft | 158 kts | 247° |
| 2026-04-24 21:05 | 21.19440 | -157.03153 | 5022 ft | 158 kts | 247° |
| 2026-04-24 21:05 | 21.18994 | -157.04232 | 5022 ft | 157 kts | 248° |
| 2026-04-24 21:06 | 21.18553 | -157.05306 | 5025 ft | 157 kts | 247° |
| 2026-04-24 21:06 | 21.18104 | -157.06392 | 4891 ft | 166 kts | 247° |
| 2026-04-24 21:06 | 21.17632 | -157.07542 | 4747 ft | 170 kts | 248° |
| 2026-04-24 21:06 | 21.17150 | -157.08714 | 4603 ft | 172 kts | 247° |
| 2026-04-24 21:07 | 21.16661 | -157.09893 | 4457 ft | 173 kts | 247° |
| 2026-04-24 21:07 | 21.16175 | -157.11078 | 4310 ft | 173 kts | 248° |
| 2026-04-24 21:07 | 21.15687 | -157.12259 | 4160 ft | 173 kts | 247° |
| 2026-04-24 21:07 | 21.15197 | -157.13444 | 4018 ft | 174 kts | 247° |
| 2026-04-24 21:08 | 21.14708 | -157.14625 | 3800 ft | 179 kts | 248° |
| 2026-04-24 21:08 | 21.14220 | -157.15793 | 3464 ft | 165 kts | 247° |
| 2026-04-24 21:08 | 21.13650 | -157.16810 | 3104 ft | 157 kts | 221° |
| 2026-04-24 21:08 | 21.12676 | -157.17175 | 2743 ft | 147 kts | 171° |
| 2026-04-24 21:09 | 21.11851 | -157.16661 | 2398 ft | 136 kts | 119° |
| 2026-04-24 21:09 | 21.11744 | -157.15722 | 2070 ft | 128 kts | 70° |
| 2026-04-24 21:09 | 21.12237 | -157.14951 | 1824 ft | 122 kts | 46° |
| 2026-04-24 21:09 | 21.12709 | -157.14250 | 1668 ft | 114 kts | 59° |
| 2026-04-24 21:10 | 21.13117 | -157.13536 | 1484 ft | 111 kts | 59° |
| 2026-04-24 21:10 | 21.13500 | -157.12841 | 1329 ft | 105 kts | 60° |
| 2026-04-24 21:10 | 21.13857 | -157.12181 | 1149 ft | 103 kts | 60° |
| 2026-04-24 21:10 | 21.14220 | -157.11515 | 928 ft | 105 kts | 62° |
| 2026-04-24 21:11 | 21.14576 | -157.10829 | 701 ft | 105 kts | 54° |
| 2026-04-24 21:11 | 21.14930 | -157.10162 | 530 ft | 102 kts | 65° |
| 2026-04-24 21:11 | 21.15251 | -157.09552 | 485 ft | 85 kts | 65° |
| 2026-04-24 21:11 | 21.15500 | -157.08946 | 642 ft | 88 kts | 77° |
| 2026-04-24 21:12 | 21.15243 | -157.08432 | 840 ft | 96 kts | 163° |
| 2026-04-24 21:12 | 21.14600 | -157.08700 | 893 ft | 116 kts | 238° |
| 2026-04-24 21:12 | 21.14302 | -157.09568 | 879 ft | 133 kts | 260° |
| 2026-04-24 21:12 | 21.14152 | -157.10577 | 914 ft | 143 kts | 261° |
| 2026-04-24 21:13 | 21.14009 | -157.11616 | 1071 ft | 137 kts | 290° |
| 2026-04-24 21:13 | 21.14719 | -157.11873 | 1048 ft | 132 kts | 48° |
| 2026-04-24 21:13 | 21.14656 | -157.10937 | 1044 ft | 137 kts | 116° |
| 2026-04-24 21:13 | 21.13896 | -157.10346 | 1115 ft | 147 kts | 175° |
| 2026-04-24 21:14 | 21.12997 | -157.10700 | 1511 ft | 129 kts | 210° |
| 2026-04-24 21:14 | 21.12316 | -157.11285 | 1773 ft | 131 kts | 231° |
| 2026-04-24 21:14 | 21.12090 | -157.12140 | 2042 ft | 113 kts | 303° |
| 2026-04-24 21:14 | 21.12784 | -157.12463 | 1877 ft | 129 kts | 21° |
| 2026-04-24 21:15 | 21.13682 | -157.12018 | 1345 ft | 146 kts | 35° |
| 2026-04-24 21:15 | 21.14343 | -157.11316 | 906 ft | 128 kts | 62° |
| 2026-04-24 21:15 | 21.14732 | -157.10540 | 612 ft | 109 kts | 61° |
| 2026-04-24 21:15 | 21.15078 | -157.09892 | 465 ft | 91 kts | 63° |
| 2026-04-24 21:16 | 21.15325 | -157.09425 | 463 ft | 48 kts | 58° |
| 2026-04-24 21:16 | 21.15405 | -157.09283 | 463 ft | 15 kts | 50° |
| 2026-04-24 21:16 | 21.15498 | -157.09314 | 462 ft | 11 kts | 329° |
| 2026-04-24 21:16 | 21.15534 | -157.09290 | 462 ft | 3 kts | 62° |
| 2026-04-24 21:17 | 21.15538 | -157.09283 | 462 ft | 0 kts | 60° |